createdAt,value
2022-11-08T00:01:20.720Z,20.57
2022-11-08T00:03:47.579Z,19.45
2022-11-08T00:06:32.907Z,20.23
2022-11-08T00:09:23.090Z,19.40
2022-11-08T00:12:10.321Z,20.15
2022-11-08T00:14:37.157Z,20.33
2022-11-08T00:17:04.092Z,19.90
2022-11-08T00:19:30.984Z,20.05
2022-11-08T00:22:00.531Z,20.10
2022-11-08T00:24:27.327Z,20.40
2022-11-08T00:26:54.108Z,20.35
2022-11-08T00:29:22.143Z,19.50
2022-11-08T00:31:57.662Z,20.85
2022-11-08T00:34:24.231Z,19.50
2022-11-08T00:36:53.684Z,21.02
2022-11-08T00:39:21.248Z,20.58
2022-11-08T00:41:48.016Z,20.35
2022-11-08T00:44:14.651Z,20.65
2022-11-08T00:46:41.660Z,20.30
2022-11-08T00:49:11.526Z,20.15
2022-11-08T00:51:39.536Z,20.50
2022-11-08T00:54:09.318Z,21.50
2022-11-08T00:56:36.058Z,20.10
2022-11-08T00:59:02.830Z,21.20
2022-11-08T01:01:37.509Z,20.35
2022-11-08T01:04:04.754Z,20.33
2022-11-08T01:06:31.574Z,19.70
2022-11-08T01:08:58.277Z,19.60
2022-11-08T01:11:29.227Z,20.77
2022-11-08T01:14:00.874Z,19.73
2022-11-08T01:16:31.001Z,19.27
2022-11-08T01:19:02.138Z,19.42
2022-11-08T01:21:38.407Z,20.55
2022-11-08T01:24:06.168Z,19.95
2022-11-08T01:26:32.827Z,19.10
2022-11-08T01:29:06.108Z,20.10
2022-11-08T01:31:33.107Z,19.23
2022-11-08T01:34:03.214Z,19.63
2022-11-08T01:36:30.319Z,19.77
2022-11-08T01:38:57.566Z,18.88
2022-11-08T01:41:28.090Z,20.08
2022-11-08T01:44:03.028Z,19.92
2022-11-08T01:46:45.679Z,19.77
2022-11-08T01:49:25.674Z,19.98
2022-11-08T01:52:08.280Z,19.05
2022-11-08T01:54:54.164Z,19.05
2022-11-08T01:57:26.838Z,20.52
2022-11-08T02:00:00.683Z,20.13
2022-11-08T02:02:30.413Z,19.90
2022-11-08T02:04:59.170Z,19.85
2022-11-08T02:07:29.411Z,19.27
2022-11-08T02:09:57.487Z,18.55
2022-11-08T02:12:27.002Z,20.33
2022-11-08T02:14:57.470Z,19.17
2022-11-08T02:17:24.795Z,19.60
2022-11-08T02:19:53.932Z,19.52
2022-11-08T02:22:38.302Z,19.00
2022-11-08T02:25:07.550Z,19.60
2022-11-08T02:27:35.170Z,20.25
2022-11-08T02:30:01.876Z,20.50
2022-11-08T02:32:40.991Z,20.40
2022-11-08T02:35:16.899Z,18.92
2022-11-08T02:37:46.633Z,20.15
2022-11-08T02:40:19.493Z,19.23
2022-11-08T02:42:48.426Z,19.42
2022-11-08T02:45:18.099Z,17.30
2022-11-08T02:47:44.863Z,18.52
2022-11-08T02:50:14.134Z,18.85
2022-11-08T02:52:41.018Z,18.15
2022-11-08T02:55:14.021Z,18.67
2022-11-08T02:57:40.878Z,19.27
2022-11-08T03:00:08.367Z,18.65
2022-11-08T03:02:35.253Z,18.92
2022-11-08T03:05:02.552Z,18.88
2022-11-08T03:07:29.659Z,17.52
2022-11-08T03:09:56.736Z,17.85
2022-11-08T03:12:23.620Z,18.23
2022-11-08T03:14:50.656Z,18.33
2022-11-08T03:17:17.568Z,17.35
2022-11-08T03:19:44.445Z,16.85
2022-11-08T03:22:11.269Z,16.73
2022-11-08T03:24:38.691Z,16.23
2022-11-08T03:27:05.634Z,17.15
2022-11-08T03:29:32.425Z,17.20
2022-11-08T03:31:59.145Z,16.75
2022-11-08T03:34:32.699Z,18.38
2022-11-08T03:36:59.941Z,17.70
2022-11-08T03:39:27.985Z,16.58
2022-11-08T03:42:03.147Z,18.00
2022-11-08T03:44:30.838Z,16.65
2022-11-08T03:47:00.359Z,16.80
2022-11-08T03:49:33.262Z,16.52
2022-11-08T03:52:00.006Z,16.60
2022-11-08T03:54:27.276Z,16.52
2022-11-08T03:56:54.451Z,15.88
2022-11-08T03:59:21.213Z,16.65
2022-11-08T04:01:48.183Z,16.67
2022-11-08T04:04:18.130Z,16.73
2022-11-08T04:06:45.063Z,16.23
2022-11-08T04:09:11.961Z,16.40
2022-11-08T04:11:57.170Z,17.08
2022-11-08T04:14:42.420Z,16.70
2022-11-08T04:17:09.154Z,15.70
2022-11-08T04:19:55.952Z,16.30
2022-11-08T04:22:22.895Z,16.02
2022-11-08T04:24:50.975Z,15.50
2022-11-08T04:27:17.744Z,16.88
2022-11-08T04:29:44.702Z,15.68
2022-11-08T04:32:11.371Z,16.40
2022-11-08T04:34:40.592Z,16.42
2022-11-08T04:37:07.534Z,14.90
2022-11-08T04:39:34.310Z,16.33
2022-11-08T04:42:03.890Z,16.38
2022-11-08T04:44:30.551Z,17.02
2022-11-08T04:47:00.297Z,16.67
2022-11-08T04:49:28.566Z,15.48
2022-11-08T04:51:55.292Z,16.15
2022-11-08T04:54:24.036Z,15.77
2022-11-08T04:56:50.728Z,16.33
2022-11-08T04:59:18.377Z,18.10
2022-11-08T05:01:45.594Z,16.38
2022-11-08T05:04:12.484Z,15.80
2022-11-08T05:06:45.331Z,16.25
2022-11-08T05:09:15.174Z,16.45
2022-11-08T05:11:42.861Z,16.95
2022-11-08T05:14:10.260Z,17.15
2022-11-08T05:16:37.023Z,16.63
2022-11-08T05:19:06.939Z,17.23
2022-11-08T05:21:56.680Z,16.60
2022-11-08T05:24:23.407Z,15.98
2022-11-08T05:26:50.336Z,18.10
2022-11-08T05:29:17.535Z,18.15
2022-11-08T05:31:44.357Z,17.83
2022-11-08T05:34:11.162Z,16.38
2022-11-08T05:36:37.810Z,17.25
2022-11-08T05:39:07.173Z,18.52
2022-11-08T05:41:33.976Z,21.20
2022-11-08T05:44:00.598Z,19.33
2022-11-08T05:46:28.705Z,18.13
2022-11-08T05:48:55.783Z,17.90
2022-11-08T05:51:22.846Z,17.05
2022-11-08T05:53:49.770Z,16.63
2022-11-08T05:56:20.731Z,18.15
2022-11-08T05:58:50.119Z,16.65
2022-11-08T06:01:19.375Z,17.35
2022-11-08T06:03:47.317Z,16.33
2022-11-08T06:06:16.887Z,23.33
2022-11-08T06:08:48.898Z,16.85
2022-11-08T06:11:19.208Z,16.83
2022-11-08T06:13:45.885Z,16.95
2022-11-08T06:16:18.953Z,16.63
2022-11-08T06:18:46.113Z,17.13
2022-11-08T06:21:18.400Z,17.15
2022-11-08T06:23:45.242Z,17.15
2022-11-08T06:26:12.179Z,16.85
2022-11-08T06:28:39.050Z,16.65
2022-11-08T06:31:06.115Z,16.35
2022-11-08T06:33:32.942Z,15.88
2022-11-08T06:35:59.834Z,16.67
2022-11-08T06:38:28.169Z,16.98
2022-11-08T06:40:55.977Z,17.23
2022-11-08T06:43:23.236Z,17.30
2022-11-08T06:45:52.422Z,16.75
2022-11-08T06:48:20.699Z,16.63
2022-11-08T06:50:47.404Z,16.02
2022-11-08T06:53:15.141Z,16.25
2022-11-08T06:55:42.312Z,14.85
2022-11-08T06:58:10.813Z,15.15
2022-11-08T07:00:37.754Z,14.27
2022-11-08T07:03:04.880Z,14.32
2022-11-08T07:05:34.388Z,15.57
2022-11-08T07:08:06.283Z,14.43
2022-11-08T07:10:40.610Z,14.07
2022-11-08T07:13:11.761Z,15.27
2022-11-08T07:15:38.710Z,14.53
2022-11-08T07:18:08.391Z,15.02
2022-11-08T07:20:35.413Z,15.27
2022-11-08T07:23:02.205Z,16.55
2022-11-08T07:25:30.125Z,15.00
2022-11-08T07:28:00.180Z,14.48
2022-11-08T07:30:27.801Z,20.13
2022-11-08T07:32:56.552Z,15.35
2022-11-08T07:35:24.191Z,14.55
2022-11-08T07:37:51.064Z,13.57
2022-11-08T07:40:20.330Z,13.55
2022-11-08T07:43:43.411Z,14.57
2022-11-08T07:46:10.099Z,14.55
2022-11-08T07:48:37.348Z,14.73
2022-11-08T07:51:04.200Z,14.43
2022-11-08T07:53:31.458Z,14.80
2022-11-08T07:55:58.749Z,15.98
2022-11-08T07:58:25.586Z,15.55
2022-11-08T08:00:52.278Z,16.00
2022-11-08T08:03:21.611Z,15.57
2022-11-08T08:05:56.531Z,16.10
2022-11-08T08:08:32.935Z,12.85
2022-11-08T08:11:02.382Z,12.80
2022-11-08T08:13:36.824Z,12.32
2022-11-08T08:16:04.033Z,10.93
2022-11-08T08:18:31.051Z,9.38
2022-11-08T08:21:00.849Z,8.70
2022-11-08T08:23:27.867Z,6.75
2022-11-08T08:25:54.715Z,7.05
2022-11-08T08:28:26.670Z,8.13
2022-11-08T08:30:56.591Z,7.30
2022-11-08T08:33:30.652Z,7.55
2022-11-08T08:36:00.719Z,8.02
2022-11-08T08:38:27.725Z,8.20
2022-11-08T08:40:54.536Z,9.13
2022-11-08T08:43:27.299Z,12.15
2022-11-08T08:45:59.141Z,17.65
2022-11-08T08:50:55.852Z,20.05
2022-11-08T08:53:22.732Z,20.77
2022-11-08T08:55:52.534Z,22.02
2022-11-08T08:58:21.107Z,21.98
2022-11-08T09:03:39.751Z,21.05
2022-11-08T09:06:06.626Z,20.80
2022-11-08T09:08:33.444Z,22.23
2022-11-08T09:11:01.649Z,22.02
2022-11-08T09:13:31.039Z,25.90
2022-11-08T09:16:02.031Z,25.58
2022-11-08T09:18:29.270Z,27.37
2022-11-08T09:20:59.900Z,28.98
2022-11-08T09:23:27.528Z,30.13
2022-11-08T09:26:03.329Z,31.10
2022-11-08T09:28:34.490Z,36.00
2022-11-08T09:31:06.359Z,36.80
2022-11-08T09:36:01.710Z,36.38
2022-11-08T09:38:30.371Z,35.50
2022-11-08T09:41:19.646Z,37.40
2022-11-08T09:43:57.291Z,38.22
2022-11-08T09:46:38.836Z,37.72
2022-11-08T09:49:24.224Z,36.95
2022-11-08T09:51:52.063Z,36.22
2022-11-08T09:54:27.500Z,38.58
2022-11-08T09:56:55.739Z,36.63
2022-11-08T10:03:16.976Z,34.45
2022-11-08T10:06:00.254Z,38.45
2022-11-08T10:08:43.153Z,37.28
2022-11-08T10:11:22.839Z,35.72
2022-11-08T10:14:19.595Z,37.88
2022-11-08T10:17:07.540Z,39.45
2022-11-08T10:19:51.764Z,37.13
2022-11-08T10:22:24.536Z,38.85
2022-11-08T10:25:04.282Z,35.90
2022-11-08T10:27:41.043Z,35.35
2022-11-08T10:30:34.660Z,35.50
2022-11-08T10:33:02.615Z,37.88
2022-11-08T10:35:43.072Z,36.10
2022-11-08T10:38:24.962Z,36.33
2022-11-08T10:44:13.007Z,37.40
2022-11-08T10:46:48.730Z,35.72
2022-11-08T10:49:17.460Z,36.25
2022-11-08T10:51:45.997Z,35.83
2022-11-08T10:54:43.796Z,38.08
2022-11-08T10:57:33.190Z,34.10
2022-11-08T11:00:24.590Z,34.55
2022-11-08T11:03:12.103Z,35.80
2022-11-08T11:05:43.163Z,32.38
2022-11-08T11:08:09.828Z,34.33
2022-11-08T11:10:43.635Z,31.40
2022-11-08T11:13:16.579Z,29.70
2022-11-08T11:15:52.944Z,32.28
2022-11-08T11:18:33.298Z,30.60
2022-11-08T11:21:01.303Z,34.45
2022-11-08T11:23:43.741Z,32.58
2022-11-08T11:26:32.150Z,30.27
2022-11-08T11:29:22.152Z,30.70
2022-11-08T11:31:54.950Z,30.80
2022-11-08T11:34:35.032Z,29.88
2022-11-08T11:37:38.268Z,28.15
2022-11-08T11:40:15.962Z,26.15
2022-11-08T11:42:55.379Z,29.42
2022-11-08T11:45:46.775Z,28.73
2022-11-08T11:48:21.738Z,28.25
2022-11-08T11:50:50.253Z,29.05
2022-11-08T11:53:16.961Z,30.55
2022-11-08T11:55:46.852Z,29.67
2022-11-08T11:58:30.746Z,30.60
2022-11-08T12:01:46.438Z,32.03
2022-11-08T12:04:13.105Z,30.65
2022-11-08T12:06:49.010Z,30.55
2022-11-08T12:09:42.211Z,29.55
2022-11-08T12:12:42.884Z,32.08
2022-11-08T12:15:48.274Z,32.10
2022-11-08T12:18:42.619Z,31.27
2022-11-08T12:21:15.638Z,31.90
2022-11-08T12:24:16.466Z,33.83
2022-11-08T12:27:13.983Z,33.47
2022-11-08T12:29:41.487Z,31.10
2022-11-08T12:32:20.283Z,32.55
2022-11-08T12:34:46.988Z,33.13
2022-11-08T12:37:34.576Z,33.20
2022-11-08T12:40:17.418Z,31.67
2022-11-08T12:43:08.496Z,32.25
2022-11-08T12:45:38.999Z,30.40
2022-11-08T12:48:32.779Z,30.92
2022-11-08T12:51:09.180Z,31.25
2022-11-08T12:53:59.229Z,32.53
2022-11-08T12:56:46.235Z,30.85
2022-11-08T12:59:30.351Z,30.23
2022-11-08T13:01:58.712Z,31.27
2022-11-08T13:04:47.032Z,32.00
2022-11-08T13:07:36.571Z,30.10
2022-11-08T13:10:13.147Z,30.40
2022-11-08T13:12:54.957Z,29.48
2022-11-08T13:15:28.686Z,31.05
2022-11-08T13:18:07.833Z,29.40
2022-11-08T13:20:47.124Z,29.08
2022-11-08T13:23:23.625Z,30.10
2022-11-08T13:25:52.073Z,29.55
2022-11-08T13:28:35.656Z,28.85
2022-11-08T13:31:24.570Z,31.38
2022-11-08T13:34:14.363Z,29.92
2022-11-08T13:37:05.772Z,30.25
2022-11-08T13:40:00.401Z,31.38
2022-11-08T13:42:30.828Z,30.05
2022-11-08T13:45:13.068Z,31.67
2022-11-08T13:47:42.902Z,31.90
2022-11-08T13:50:27.981Z,30.98
2022-11-08T13:53:10.810Z,30.58
2022-11-08T13:55:43.568Z,30.55
2022-11-08T13:58:29.233Z,31.38
2022-11-08T14:01:01.123Z,30.33
2022-11-08T14:03:33.929Z,30.00
2022-11-08T14:06:09.066Z,30.05
2022-11-08T14:09:20.734Z,28.23
2022-11-08T14:11:54.240Z,28.17
2022-11-08T14:14:39.698Z,30.92
2022-11-08T14:17:33.331Z,28.65
2022-11-08T14:20:18.730Z,29.60
2022-11-08T14:22:50.404Z,30.20
2022-11-08T14:25:26.662Z,29.25
2022-11-08T14:27:54.324Z,28.20
2022-11-08T14:30:23.873Z,29.60
2022-11-08T14:33:14.520Z,28.33
2022-11-08T14:36:20.213Z,29.58
2022-11-08T14:39:04.020Z,29.67
2022-11-08T14:41:32.723Z,30.80
2022-11-08T14:44:01.577Z,30.88
2022-11-08T14:46:40.960Z,30.30
2022-11-08T14:49:13.846Z,30.48
2022-11-08T14:51:41.250Z,28.90
2022-11-08T14:54:25.270Z,31.83
2022-11-08T14:56:52.210Z,32.15
2022-11-08T14:59:19.234Z,29.75
2022-11-08T15:01:48.838Z,30.17
2022-11-08T15:04:21.620Z,28.25
2022-11-08T15:06:58.047Z,31.25
2022-11-08T15:09:33.648Z,29.33
2022-11-08T15:12:03.246Z,29.58
2022-11-08T15:14:37.211Z,30.67
2022-11-08T15:17:04.204Z,33.10
2022-11-08T15:19:43.332Z,32.05
2022-11-08T15:22:27.714Z,31.48
2022-11-08T15:25:34.584Z,32.92
2022-11-08T15:28:37.485Z,32.88
2022-11-08T15:31:17.167Z,31.63
2022-11-08T15:33:44.624Z,32.03
2022-11-08T15:36:13.551Z,33.47
2022-11-08T15:38:42.533Z,35.45
2022-11-08T15:41:44.912Z,35.45
2022-11-08T15:44:23.186Z,37.03
2022-11-08T15:46:51.779Z,38.25
2022-11-08T15:49:29.821Z,36.15
2022-11-08T15:52:00.539Z,38.13
2022-11-08T15:54:27.448Z,39.00
2022-11-08T15:56:58.681Z,37.63
2022-11-08T15:59:30.229Z,39.97
2022-11-08T16:02:00.733Z,39.42
2022-11-08T16:04:30.885Z,42.08
2022-11-08T16:06:58.651Z,42.72
2022-11-08T16:09:25.404Z,41.58
2022-11-08T16:11:55.284Z,44.50
2022-11-08T16:14:24.633Z,45.25
2022-11-08T16:16:56.554Z,43.60
2022-11-08T16:19:29.275Z,45.22
2022-11-08T16:21:58.594Z,44.08
2022-11-08T16:24:25.410Z,44.50
2022-11-08T16:26:54.633Z,44.30
2022-11-08T16:29:23.481Z,43.22
2022-11-08T16:31:53.363Z,43.03
2022-11-08T16:34:20.456Z,44.90
2022-11-08T16:39:55.518Z,45.38
2022-11-08T16:42:23.718Z,44.17
2022-11-08T16:44:51.985Z,44.08
2022-11-08T16:47:19.884Z,47.13
2022-11-08T16:49:51.455Z,47.55
2022-11-08T16:54:45.236Z,46.33
2022-11-08T16:57:33.658Z,47.30
2022-11-08T16:59:58.892Z,46.85
2022-11-08T17:02:34.641Z,45.83
2022-11-08T17:05:01.778Z,49.15
2022-11-08T17:07:29.456Z,49.42
2022-11-08T17:09:56.108Z,47.53
2022-11-08T17:12:24.276Z,48.83
2022-11-08T17:14:53.563Z,48.03
2022-11-08T17:17:30.642Z,48.35
2022-11-08T17:19:57.354Z,49.42
2022-11-08T17:22:24.152Z,48.40
2022-11-08T17:24:51.277Z,50.25
2022-11-08T17:27:19.891Z,48.95
2022-11-08T17:29:46.931Z,51.67
2022-11-08T17:32:14.586Z,52.65
2022-11-08T17:34:46.628Z,52.33
2022-11-08T17:37:17.671Z,51.38
2022-11-08T17:39:45.980Z,52.63
2022-11-08T17:42:13.071Z,56.60
2022-11-08T17:44:40.526Z,54.13
2022-11-08T17:47:07.323Z,55.83
2022-11-08T17:49:34.208Z,56.10
2022-11-08T17:52:00.926Z,54.80
2022-11-08T17:54:28.869Z,53.97
2022-11-08T17:56:55.878Z,55.38
2022-11-08T17:59:22.713Z,54.95
2022-11-08T18:01:52.812Z,55.72
2022-11-08T18:04:22.437Z,55.08
2022-11-08T18:06:52.555Z,55.45
2022-11-08T18:09:20.190Z,57.85
2022-11-08T18:11:50.616Z,57.70
2022-11-08T18:14:22.000Z,56.28
2022-11-08T18:16:56.127Z,54.75
2022-11-08T18:19:23.579Z,57.35
2022-11-08T18:21:50.512Z,56.95
2022-11-08T18:24:17.418Z,57.13
2022-11-08T18:26:44.460Z,55.55
2022-11-08T18:29:12.568Z,56.25
2022-11-08T18:31:39.805Z,54.50
2022-11-08T18:34:06.649Z,56.63
2022-11-08T18:36:33.588Z,53.25
2022-11-08T18:39:01.391Z,55.55
2022-11-08T18:41:31.699Z,50.67
2022-11-08T18:44:02.390Z,50.88
2022-11-08T18:46:36.558Z,54.47
2022-11-08T18:49:14.822Z,52.45
2022-11-08T18:51:45.448Z,53.38
2022-11-08T18:54:12.544Z,52.88
2022-11-08T18:56:41.311Z,51.40
2022-11-08T18:59:11.317Z,52.75
2022-11-08T19:01:51.217Z,54.42
2022-11-08T19:04:18.078Z,51.83
2022-11-08T19:06:48.784Z,52.67
2022-11-08T19:09:19.410Z,57.55
2022-11-08T19:11:47.775Z,54.28
2022-11-08T19:14:17.209Z,56.20
2022-11-08T19:16:44.141Z,56.25
2022-11-08T19:19:13.982Z,60.67
2022-11-08T19:21:44.535Z,55.20
2022-11-08T19:24:17.772Z,56.63
2022-11-08T19:26:46.529Z,58.17
2022-11-08T19:29:14.369Z,59.85
2022-11-08T19:31:47.817Z,61.40
2022-11-08T19:34:15.844Z,60.10
2022-11-08T19:36:49.030Z,58.58
2022-11-08T19:39:19.339Z,58.10
2022-11-08T19:41:48.271Z,62.30
2022-11-08T19:44:19.155Z,59.05
2022-11-08T19:46:46.179Z,58.80
2022-11-08T19:49:13.186Z,58.20
2022-11-08T19:51:42.195Z,75.82
2022-11-08T19:54:21.726Z,60.85
2022-11-08T19:57:10.534Z,62.97
2022-11-08T19:59:40.414Z,60.63
2022-11-08T20:02:07.462Z,62.90
2022-11-08T20:04:34.691Z,62.95
2022-11-08T20:07:02.666Z,62.20
2022-11-08T20:09:33.038Z,62.00
2022-11-08T20:12:00.092Z,61.75
2022-11-08T20:14:28.514Z,62.92
2022-11-08T20:16:55.785Z,61.80
2022-11-08T20:19:28.166Z,61.13
2022-11-08T20:21:58.197Z,63.30
2022-11-08T20:24:26.580Z,59.10
2022-11-08T20:26:58.067Z,64.43
2022-11-08T20:29:30.551Z,65.80
2022-11-08T20:31:58.090Z,63.65
2022-11-08T20:34:26.444Z,65.68
2022-11-08T20:36:55.687Z,63.42
2022-11-08T20:39:23.762Z,66.60
2022-11-08T20:41:56.838Z,65.63
2022-11-08T20:44:24.370Z,67.07
2022-11-08T20:46:51.929Z,67.05
2022-11-08T20:49:20.476Z,67.70
2022-11-08T20:51:49.167Z,69.00
2022-11-08T20:54:17.557Z,68.43
2022-11-08T20:56:48.886Z,68.72
2022-11-08T20:59:23.578Z,68.50
2022-11-08T21:01:53.002Z,64.53
2022-11-08T21:04:20.868Z,67.78
2022-11-08T21:06:47.791Z,68.53
2022-11-08T21:09:37.431Z,73.43
2022-11-08T21:12:09.522Z,69.70
2022-11-08T21:14:38.935Z,71.30
2022-11-08T21:17:22.632Z,68.70
2022-11-08T21:19:51.251Z,67.10
2022-11-08T21:22:21.544Z,67.78
2022-11-08T21:24:51.196Z,72.20
2022-11-08T21:27:18.420Z,68.18
2022-11-08T21:29:48.130Z,70.10
2022-11-08T21:32:20.842Z,69.28
2022-11-08T21:34:50.935Z,70.10
2022-11-08T21:37:17.736Z,67.82
2022-11-08T21:39:59.007Z,66.40
2022-11-08T21:42:26.989Z,69.30
2022-11-08T21:44:53.871Z,66.97
2022-11-08T21:47:25.720Z,70.00
2022-11-08T21:52:28.536Z,66.32
2022-11-08T21:54:55.602Z,70.65
2022-11-08T21:57:23.641Z,70.07
2022-11-08T21:59:50.393Z,70.82
2022-11-08T22:02:17.216Z,69.32
2022-11-08T22:04:47.658Z,66.07
2022-11-08T22:07:14.517Z,69.50
2022-11-08T22:09:42.526Z,68.97
2022-11-08T22:12:11.630Z,67.28
2022-11-08T22:14:38.878Z,67.18
2022-11-08T22:17:06.522Z,71.68
2022-11-08T22:19:33.923Z,70.85
2022-11-08T22:22:04.995Z,69.53
2022-11-08T22:24:32.512Z,72.00
2022-11-08T22:27:04.130Z,69.20
2022-11-08T22:29:31.079Z,72.40
2022-11-08T22:31:58.775Z,69.70
2022-11-08T22:34:25.856Z,73.55
2022-11-08T22:36:52.660Z,68.63
2022-11-08T22:39:33.273Z,69.40
2022-11-08T22:42:00.310Z,71.10
2022-11-08T22:44:32.932Z,70.55
2022-11-08T22:46:59.523Z,68.40
2022-11-08T22:49:26.176Z,70.05
2022-11-08T22:51:53.412Z,69.38
2022-11-08T22:54:20.180Z,73.18
2022-11-08T22:56:48.333Z,72.95
2022-11-08T22:59:19.154Z,75.10
2022-11-08T23:01:49.000Z,74.70
2022-11-08T23:04:15.820Z,74.30
2022-11-08T23:06:44.427Z,70.53
2022-11-08T23:09:13.453Z,71.43
2022-11-08T23:11:59.376Z,72.88
2022-11-08T23:14:47.074Z,68.47
2022-11-08T23:17:13.865Z,73.57
2022-11-08T23:19:59.233Z,66.32
2022-11-08T23:22:47.526Z,66.82
2022-11-08T23:25:14.795Z,67.93
2022-11-08T23:27:59.918Z,70.82
2022-11-08T23:30:47.034Z,72.35
2022-11-08T23:33:13.974Z,70.93
2022-11-08T23:36:00.796Z,68.95
2022-11-08T23:38:27.525Z,70.30
2022-11-08T23:41:17.366Z,70.82
2022-11-08T23:44:03.886Z,69.55
2022-11-08T23:46:30.639Z,65.68
2022-11-08T23:48:57.391Z,65.72
2022-11-08T23:51:25.822Z,70.10
2022-11-08T23:53:52.709Z,70.35
2022-11-08T23:56:26.996Z,68.13
2022-11-08T23:58:58.198Z,70.85
